Time;durP1;ratioP1;P1;durP2;ratioP2;P2;SDS_P1;SDS_P2;PMS_P1;PMS_P2;Temp;Humidity;BMP_temperature;BMP_pressure;BME280_temperature;BME280_humidity;BME280_pressure;Samples;Min_cycle;Max_cycle;Signal;HPM_P1;HPM_P2
2021/03/29 00:01:43;;;;;;;1.58;0.77;;;22.60;30.60;;;;;;5091390;28;20432;-68
2021/03/29 00:04:09;;;;;;;1.80;0.90;;;22.70;30.70;;;;;;5090654;28;20395;-66
2021/03/29 00:06:36;;;;;;;1.90;0.82;;;22.60;30.60;;;;;;5091864;28;20381;-66
2021/03/29 00:09:03;;;;;;;1.58;0.90;;;22.60;30.60;;;;;;5091319;28;20386;-62
2021/03/29 00:11:30;;;;;;;2.20;0.88;;;22.60;30.60;;;;;;5091113;28;20380;-65
2021/03/29 00:13:58;;;;;;;1.52;0.90;;;22.60;30.60;;;;;;5091698;28;20447;-66
2021/03/29 00:16:25;;;;;;;1.70;0.90;;;22.60;30.60;;;;;;5091645;28;20793;-65
2021/03/29 00:18:51;;;;;;;1.48;0.70;;;22.60;30.60;;;;;;5091780;28;20781;-65
2021/03/29 00:21:17;;;;;;;1.92;0.90;;;22.60;30.60;;;;;;5091913;28;20503;-59
2021/03/29 00:23:43;;;;;;;1.55;0.80;;;22.60;30.50;;;;;;5091039;28;20462;-66
2021/03/29 00:26:10;;;;;;;2.47;0.90;;;22.60;30.60;;;;;;5090995;28;20378;-65
2021/03/29 00:28:35;;;;;;;1.55;0.85;;;22.60;30.60;;;;;;5091771;28;20390;-65
2021/03/29 00:31:05;;;;;;;1.77;0.90;;;22.60;31.20;;;;;;5091623;28;20865;-64
2021/03/29 00:33:32;;;;;;;1.42;0.80;;;22.60;30.50;;;;;;5091144;28;20396;-65
2021/03/29 00:35:58;;;;;;;1.40;0.80;;;22.60;30.60;;;;;;5091663;28;20385;-63
2021/03/29 00:38:25;;;;;;;1.83;0.95;;;22.60;30.60;;;;;;5091582;28;20394;-58
2021/03/29 00:40:56;;;;;;;1.45;0.80;;;22.60;30.60;;;;;;5091757;28;20386;-64
2021/03/29 00:43:28;;;;;;;1.50;0.90;;;22.50;30.50;;;;;;5091281;28;20493;-65
2021/03/29 00:45:56;;;;;;;1.52;0.90;;;22.50;30.50;;;;;;5091205;28;20378;-67
2021/03/29 00:48:24;;;;;;;1.60;1.00;;;22.50;30.50;;;;;;5091353;28;20401;-65
2021/03/29 00:51:11;;;;;;;2.90;0.90;;;22.50;30.50;;;;;;5091505;28;20413;-66
2021/03/29 00:53:41;;;;;;;1.50;0.80;;;22.50;30.50;;;;;;5090930;28;20435;-66
2021/03/29 00:56:08;;;;;;;2.10;0.90;;;22.50;30.50;;;;;;5091075;28;20393;-65
2021/03/29 00:58:34;;;;;;;1.30;0.80;;;22.50;30.50;;;;;;5090096;28;20390;-65
2021/03/29 01:01:09;;;;;;;1.20;0.80;;;22.50;30.50;;;;;;5091220;28;20383;-66
2021/03/29 01:03:38;;;;;;;1.38;0.90;;;22.50;30.50;;;;;;5090817;28;20445;-66
2021/03/29 01:06:07;;;;;;;1.70;0.80;;;22.50;30.50;;;;;;5090020;28;20906;-66
2021/03/29 01:08:40;;;;;;;1.40;0.80;;;22.40;30.40;;;;;;5090121;28;20478;-65
2021/03/29 01:11:08;;;;;;;1.58;0.88;;;22.40;30.40;;;;;;5090333;28;20469;-64
2021/03/29 01:13:38;;;;;;;2.38;0.80;;;22.40;30.50;;;;;;5090677;28;20473;-62
2021/03/29 01:16:06;;;;;;;1.50;0.82;;;22.40;30.40;;;;;;5091135;28;20479;-66
2021/03/29 01:18:33;;;;;;;1.80;0.90;;;22.40;30.50;;;;;;5089944;28;20413;-66
2021/03/29 01:21:05;;;;;;;1.73;0.98;;;22.40;30.50;;;;;;5090888;28;20896;-65
2021/03/29 01:23:32;;;;;;;1.50;0.85;;;22.40;30.50;;;;;;5090867;28;20420;-65
2021/03/29 01:26:08;;;;;;;1.30;0.90;;;22.40;30.50;;;;;;5090792;28;20468;-67
2021/03/29 01:28:35;;;;;;;1.55;0.88;;;22.40;30.40;;;;;;5089308;28;20757;-65
2021/03/29 01:31:01;;;;;;;1.60;0.90;;;22.40;30.40;;;;;;5091028;28;20378;-65
2021/03/29 01:33:27;;;;;;;1.58;0.80;;;22.30;30.40;;;;;;5089594;28;20754;-61
2021/03/29 01:35:57;;;;;;;1.77;0.95;;;22.40;30.50;;;;;;5090845;28;20405;-66
2021/03/29 01:38:25;;;;;;;1.17;0.73;;;22.40;30.50;;;;;;5093489;28;20389;-65
2021/03/29 01:40:53;;;;;;;1.70;0.80;;;22.40;30.40;;;;;;5094588;28;20436;-65
2021/03/29 01:43:20;;;;;;;1.85;0.88;;;22.40;30.40;;;;;;5094247;28;20422;-64
2021/03/29 01:45:46;;;;;;;1.77;0.93;;;22.30;30.30;;;;;;5093895;28;20382;-66
2021/03/29 01:48:12;;;;;;;1.60;0.90;;;22.40;30.30;;;;;;5094405;28;20386;-66
2021/03/29 01:50:41;;;;;;;1.52;0.93;;;22.30;30.30;;;;;;5094421;28;20378;-62
2021/03/29 01:53:09;;;;;;;1.30;0.82;;;22.30;30.30;;;;;;5094435;28;20432;-65
2021/03/29 01:55:36;;;;;;;1.30;0.80;;;22.30;30.20;;;;;;5093671;28;20421;-58
2021/03/29 01:58:05;;;;;;;1.88;0.80;;;22.30;30.20;;;;;;5093903;28;20451;-58
2021/03/29 02:01:11;;;;;;;1.55;0.85;;;22.30;30.30;;;;;;5094207;28;20424;-62
2021/03/29 02:03:39;;;;;;;2.22;0.88;;;22.30;30.20;;;;;;5011507;28;20963;-59
2021/03/29 02:06:06;;;;;;;2.03;1.00;;;22.30;30.30;;;;;;5080980;28;20797;-60
2021/03/29 02:08:33;;;;;;;1.60;0.90;;;22.30;30.30;;;;;;5094019;28;20423;-65
2021/03/29 02:11:00;;;;;;;1.80;1.00;;;22.30;30.30;;;;;;5093969;28;20401;-61
2021/03/29 02:13:34;;;;;;;1.60;0.90;;;22.30;30.20;;;;;;5093295;28;20894;-61
2021/03/29 02:16:08;;;;;;;1.80;1.00;;;22.30;30.20;;;;;;5094312;28;20386;-65
2021/03/29 02:18:56;;;;;;;1.45;0.90;;;22.30;30.20;;;;;;5092691;28;20390;-62
2021/03/29 02:21:24;;;;;;;1.50;0.90;;;22.20;30.20;;;;;;5093742;28;20875;-62
2021/03/29 02:23:54;;;;;;;1.58;0.90;;;22.20;30.20;;;;;;5093296;28;20440;-64
2021/03/29 02:26:21;;;;;;;1.50;0.82;;;22.20;30.20;;;;;;5093626;28;20469;-66
2021/03/29 02:28:48;;;;;;;1.63;0.80;;;22.20;30.20;;;;;;5093958;28;20420;-65
2021/03/29 02:31:14;;;;;;;1.40;0.90;;;22.20;30.20;;;;;;5093674;28;20393;-64
2021/03/29 02:33:41;;;;;;;1.77;0.90;;;22.20;30.20;;;;;;5093017;28;20803;-62
2021/03/29 02:36:07;;;;;;;1.42;0.82;;;22.20;30.20;;;;;;5093577;28;20893;-66
2021/03/29 02:38:33;;;;;;;1.05;0.70;;;22.20;30.20;;;;;;5093449;28;20398;-65
2021/03/29 02:40:59;;;;;;;1.58;0.95;;;22.20;30.20;;;;;;5093397;28;20382;-63
2021/03/29 02:43:26;;;;;;;1.65;0.82;;;22.20;30.10;;;;;;5093384;28;20969;-62
2021/03/29 02:46:02;;;;;;;1.50;0.80;;;22.20;30.10;;;;;;5092976;28;20386;-64
2021/03/29 02:48:32;;;;;;;1.20;0.70;;;22.20;30.10;;;;;;5092950;28;20398;-61
2021/03/29 02:50:59;;;;;;;1.98;0.90;;;22.20;30.10;;;;;;5093311;28;20390;-63
2021/03/29 02:53:33;;;;;;;1.42;1.00;;;22.20;30.10;;;;;;5093171;28;20394;-65
2021/03/29 02:56:03;;;;;;;1.40;0.75;;;22.10;30.10;;;;;;5092771;28;20470;-67
2021/03/29 02:58:30;;;;;;;1.63;0.90;;;22.10;30.10;;;;;;5091854;28;20395;-62
2021/03/29 03:00:57;;;;;;;1.50;0.88;;;22.10;30.70;;;;;;5091316;28;20398;-66
2021/03/29 03:03:23;;;;;;;1.20;0.80;;;22.10;30.10;;;;;;5092786;28;21101;-66
2021/03/29 03:05:52;;;;;;;1.88;1.00;;;22.10;30.10;;;;;;5092375;28;20384;-64
2021/03/29 03:08:19;;;;;;;2.03;1.00;;;22.10;30.10;;;;;;5092654;28;20409;-66
2021/03/29 03:10:45;;;;;;;3.20;0.90;;;22.00;30.10;;;;;;5092853;28;20382;-65
2021/03/29 03:13:11;;;;;;;2.55;1.10;;;22.00;30.40;;;;;;5091181;28;20477;-64
2021/03/29 03:15:38;;;;;;;1.60;1.00;;;22.00;30.50;;;;;;5092172;28;20382;-63
2021/03/29 03:18:07;;;;;;;1.30;0.70;;;22.00;30.30;;;;;;5093114;28;20446;-65
2021/03/29 03:20:35;;;;;;;1.85;0.85;;;22.10;30.50;;;;;;5092884;28;20382;-59
2021/03/29 03:23:09;;;;;;;2.33;1.00;;;22.10;30.90;;;;;;5101635;28;20421;-62
2021/03/29 03:25:36;;;;;;;2.42;0.90;;;22.20;30.90;;;;;;5093973;28;20475;-59
2021/03/29 03:28:08;;;;;;;6.20;1.35;;;22.20;32.20;;;;;;5094471;28;20409;-60
2021/03/29 03:30:36;;;;;;;4.13;0.90;;;22.20;32.50;;;;;;5099139;28;20402;-59
2021/03/29 03:33:04;;;;;;;5.18;1.10;;;22.20;32.90;;;;;;5098141;28;20402;-59
2021/03/29 03:35:32;;;;;;;4.82;1.00;;;22.20;32.50;;;;;;5112258;28;20388;-65
2021/03/29 03:38:13;;;;;;;4.00;1.10;;;22.20;32.60;;;;;;5112305;28;20384;-65
2021/03/29 03:40:45;;;;;;;3.53;0.95;;;22.30;32.20;;;;;;5112178;28;20752;-65
2021/03/29 03:43:13;;;;;;;4.68;1.00;;;22.20;31.60;;;;;;5112001;28;20412;-64
2021/03/29 03:45:49;;;;;;;5.22;1.10;;;22.20;32.50;;;;;;5112025;28;20384;-66
2021/03/29 03:48:18;;;;;;;5.53;1.02;;;22.30;33.40;;;;;;5112344;28;20395;-67
2021/03/29 03:50:48;;;;;;;5.25;0.88;;;22.30;33.10;;;;;;5112584;28;20376;-58
2021/03/29 03:53:15;;;;;;;4.65;1.00;;;22.30;33.30;;;;;;5112386;28;20384;-66
2021/03/29 03:55:41;;;;;;;2.85;1.17;;;22.30;32.10;;;;;;5111945;28;20438;-59
2021/03/29 03:58:08;;;;;;;4.53;0.90;;;22.20;31.50;;;;;;5112191;28;20918;-66
2021/03/29 04:00:35;;;;;;;3.00;1.00;;;22.20;31.80;;;;;;5111404;28;20419;-66
2021/03/29 04:03:00;;;;;;;2.88;0.80;;;22.20;30.90;;;;;;5112102;28;20921;-60
2021/03/29 04:05:26;;;;;;;4.28;0.93;;;22.20;31.60;;;;;;5112236;28;20471;-67
2021/03/29 04:07:53;;;;;;;3.63;1.00;;;22.20;31.20;;;;;;5111480;28;20380;-64
2021/03/29 04:10:21;;;;;;;5.93;1.00;;;22.20;31.20;;;;;;5112082;28;20380;-65
2021/03/29 04:12:52;;;;;;;3.78;1.20;;;22.10;31.40;;;;;;5111955;28;20404;-65
2021/03/29 04:15:19;;;;;;;3.80;0.90;;;22.20;31.60;;;;;;5111930;28;20391;-65
2021/03/29 04:17:45;;;;;;;4.43;0.93;;;22.10;31.50;;;;;;5111635;28;20389;-65
2021/03/29 04:20:12;;;;;;;6.30;1.15;;;22.10;31.40;;;;;;5111974;28;20399;-66
2021/03/29 04:22:37;;;;;;;3.88;1.10;;;22.10;31.40;;;;;;5111460;28;20509;-66
2021/03/29 04:25:06;;;;;;;3.63;1.00;;;22.10;31.30;;;;;;5111505;28;20815;-64
2021/03/29 04:27:32;;;;;;;2.45;0.80;;;22.10;31.20;;;;;;5111781;28;20392;-64
2021/03/29 04:29:58;;;;;;;5.60;1.40;;;22.20;31.30;;;;;;5111400;28;20388;-65
2021/03/29 04:32:24;;;;;;;1.50;0.95;;;22.10;31.20;;;;;;5109753;28;20392;-64
2021/03/29 04:34:49;;;;;;;3.53;0.80;;;22.10;31.10;;;;;;5109607;28;20430;-66
2021/03/29 04:37:15;;;;;;;2.93;1.00;;;22.10;31.10;;;;;;5111123;28;20388;-66
2021/03/29 04:39:41;;;;;;;4.13;0.95;;;22.10;31.10;;;;;;5110193;28;20399;-65
2021/03/29 04:42:07;;;;;;;3.90;1.00;;;22.10;31.00;;;;;;5111458;28;20404;-66
2021/03/29 04:44:32;;;;;;;3.07;0.90;;;22.10;31.00;;;;;;5111669;28;20471;-65
2021/03/29 04:46:58;;;;;;;1.90;1.00;;;22.10;31.00;;;;;;5111940;28;20928;-66
2021/03/29 04:49:24;;;;;;;2.80;0.80;;;22.10;30.90;;;;;;5111818;28;20372;-66
2021/03/29 04:51:50;;;;;;;2.33;0.90;;;22.10;30.90;;;;;;5111260;28;20388;-65
2021/03/29 04:54:16;;;;;;;2.10;0.70;;;22.10;30.90;;;;;;5111758;28;20396;-65
2021/03/29 04:56:42;;;;;;;3.23;0.80;;;22.10;30.80;;;;;;5111681;28;20435;-63
2021/03/29 04:59:07;;;;;;;2.15;0.80;;;22.20;30.80;;;;;;5111572;28;20396;-65
2021/03/29 05:01:33;;;;;;;1.80;0.80;;;22.10;30.70;;;;;;5111714;28;20368;-65
2021/03/29 05:03:58;;;;;;;2.33;1.00;;;22.10;30.70;;;;;;5111047;28;20411;-65
2021/03/29 05:06:24;;;;;;;1.57;0.93;;;22.10;30.70;;;;;;5111574;28;20593;-65
2021/03/29 05:08:50;;;;;;;2.15;0.93;;;22.10;30.60;;;;;;5111341;28;20384;-65
2021/03/29 05:11:15;;;;;;;2.70;1.00;;;22.10;30.60;;;;;;5112228;28;20475;-65
2021/03/29 05:13:41;;;;;;;2.13;1.08;;;22.10;30.60;;;;;;5115154;28;20392;-65
2021/03/29 05:16:07;;;;;;;2.50;1.00;;;22.10;30.60;;;;;;5115284;28;20467;-65
2021/03/29 05:18:32;;;;;;;2.33;1.15;;;22.10;30.60;;;;;;5115403;28;20404;-64
2021/03/29 05:20:58;;;;;;;3.10;1.13;;;22.10;30.60;;;;;;5115292;28;20521;-66
2021/03/29 05:23:24;;;;;;;2.60;1.00;;;22.10;30.50;;;;;;5115093;28;20411;-65
2021/03/29 05:25:49;;;;;;;2.83;1.05;;;22.10;30.50;;;;;;5114879;28;20376;-65
2021/03/29 05:28:15;;;;;;;1.50;0.90;;;22.10;30.50;;;;;;5115076;28;20400;-66
2021/03/29 05:30:42;;;;;;;2.28;1.00;;;22.10;30.40;;;;;;5115143;28;20412;-65
2021/03/29 05:33:07;;;;;;;2.47;1.10;;;22.10;30.40;;;;;;5115088;28;20435;-66
2021/03/29 05:35:33;;;;;;;2.05;1.00;;;22.10;30.30;;;;;;5114974;28;20400;-64
2021/03/29 05:37:59;;;;;;;2.15;1.13;;;22.10;30.30;;;;;;5113604;28;20391;-65
2021/03/29 05:40:25;;;;;;;2.10;0.90;;;22.10;30.30;;;;;;5114443;28;20388;-65
2021/03/29 05:42:51;;;;;;;2.35;1.02;;;22.10;30.30;;;;;;5114665;28;20427;-65
2021/03/29 05:45:18;;;;;;;1.90;1.00;;;22.00;30.20;;;;;;5114611;28;20436;-65
2021/03/29 05:47:44;;;;;;;2.03;1.10;;;22.00;30.20;;;;;;5114595;28;20483;-66
2021/03/29 05:50:13;;;;;;;2.90;1.10;;;22.00;30.20;;;;;;5114478;28;20563;-65
2021/03/29 05:52:40;;;;;;;1.80;1.00;;;22.00;30.10;;;;;;5114603;28;20381;-65
2021/03/29 05:55:10;;;;;;;2.17;1.20;;;22.00;30.10;;;;;;5114716;28;20384;-65
2021/03/29 05:58:04;;;;;;;2.00;1.02;;;22.10;30.20;;;;;;5114595;28;20384;-66
2021/03/29 06:00:43;;;;;;;2.25;1.17;;;22.10;30.10;;;;;;5114418;28;20395;-66
2021/03/29 06:03:19;;;;;;;1.77;1.10;;;22.10;30.10;;;;;;5114454;28;20444;-66
2021/03/29 06:05:46;;;;;;;1.83;1.00;;;22.00;30.00;;;;;;5114004;28;20376;-64
2021/03/29 06:08:13;;;;;;;1.80;1.10;;;22.10;30.00;;;;;;5114323;28;20379;-65
2021/03/29 06:10:39;;;;;;;2.20;1.10;;;22.10;30.00;;;;;;5114408;28;20466;-65
2021/03/29 06:13:36;;;;;;;2.28;1.10;;;22.10;30.00;;;;;;5114302;28;20800;-66
2021/03/29 06:16:10;;;;;;;1.77;1.13;;;22.10;30.00;;;;;;5113684;27;20775;-66
2021/03/29 06:18:37;;;;;;;2.33;1.10;;;22.00;30.00;;;;;;5114077;28;20445;-66
2021/03/29 06:21:04;;;;;;;1.95;1.10;;;22.00;30.00;;;;;;5114115;28;20415;-66
2021/03/29 06:23:31;;;;;;;2.22;1.00;;;22.00;30.00;;;;;;5113243;27;20802;-66
2021/03/29 06:26:26;;;;;;;2.45;1.30;;;22.00;30.00;;;;;;5112226;28;20740;-66
2021/03/29 06:28:52;;;;;;;1.73;1.00;;;22.00;29.90;;;;;;5114054;28;20396;-65
2021/03/29 06:31:19;;;;;;;2.35;1.15;;;22.00;29.90;;;;;;5113879;28;20384;-63
2021/03/29 06:33:49;;;;;;;2.05;0.93;;;22.00;29.80;;;;;;5113762;28;20393;-65
2021/03/29 06:36:35;;;;;;;1.77;0.90;;;22.00;29.70;;;;;;5113782;28;21260;-65
2021/03/29 06:39:20;;;;;;;2.08;1.25;;;22.10;29.70;;;;;;5113657;28;20872;-66
2021/03/29 06:41:56;;;;;;;1.73;1.20;;;22.10;29.70;;;;;;5113499;28;20458;-65
2021/03/29 06:44:28;;;;;;;1.83;1.05;;;22.10;29.60;;;;;;5113521;28;20419;-65
2021/03/29 06:47:06;;;;;;;1.65;1.10;;;22.20;29.60;;;;;;5113621;28;20390;-64
2021/03/29 06:49:43;;;;;;;1.80;1.00;;;22.10;29.50;;;;;;5113590;28;20994;-65
2021/03/29 06:52:28;;;;;;;1.83;1.02;;;22.20;29.50;;;;;;5113128;28;20388;-63
2021/03/29 06:55:24;;;;;;;1.67;1.00;;;22.20;29.40;;;;;;5112948;28;20376;-65
2021/03/29 06:58:08;;;;;;;1.60;0.90;;;22.20;29.40;;;;;;5106566;28;20457;-59
2021/03/29 07:00:39;;;;;;;1.98;1.05;;;22.20;29.60;;;;;;5111993;28;20879;-61
2021/03/29 07:03:09;;;;;;;1.50;1.00;;;22.30;29.50;;;;;;5112460;28;20412;-65
2021/03/29 07:05:35;;;;;;;1.77;1.00;;;22.30;29.50;;;;;;5112123;28;20385;-65
2021/03/29 07:08:04;;;;;;;1.88;0.93;;;22.30;29.20;;;;;;5112313;28;20476;-65
2021/03/29 07:10:31;;;;;;;2.70;1.07;;;22.30;29.20;;;;;;5112964;28;20474;-63
2021/03/29 07:12:57;;;;;;;1.38;0.90;;;22.40;29.30;;;;;;5113090;28;20388;-65
2021/03/29 07:15:23;;;;;;;1.67;1.00;;;22.40;29.20;;;;;;5113166;27;20440;-66
2021/03/29 07:17:50;;;;;;;1.90;1.10;;;22.40;29.20;;;;;;5112875;28;20392;-65
2021/03/29 07:20:24;;;;;;;1.80;1.05;;;22.40;29.30;;;;;;5112665;27;20381;-65
2021/03/29 07:22:50;;;;;;;2.10;1.00;;;22.50;29.30;;;;;;5112984;28;20415;-64
2021/03/29 07:25:16;;;;;;;2.33;1.00;;;22.50;29.20;;;;;;5112834;28;20380;-66
2021/03/29 07:27:53;;;;;;;1.77;0.90;;;22.50;29.20;;;;;;5112876;28;21018;-65
2021/03/29 07:30:44;;;;;;;1.65;0.90;;;22.50;29.20;;;;;;5112659;28;20856;-65
2021/03/29 07:33:11;;;;;;;1.65;0.95;;;22.60;29.20;;;;;;5112783;28;20431;-65
2021/03/29 07:35:55;;;;;;;1.90;0.90;;;22.60;29.10;;;;;;5112780;28;20373;-65
2021/03/29 07:38:26;;;;;;;1.50;0.90;;;22.60;29.10;;;;;;5112714;28;20475;-66
2021/03/29 07:40:57;;;;;;;2.20;1.00;;;22.70;29.10;;;;;;5112758;27;20398;-63
2021/03/29 07:43:25;;;;;;;1.50;1.00;;;22.70;29.10;;;;;;5111057;28;20421;-65
2021/03/29 07:46:05;;;;;;;1.60;1.00;;;22.70;29.10;;;;;;5112383;28;20383;-66
2021/03/29 07:48:31;;;;;;;2.00;0.90;;;22.70;29.00;;;;;;5112470;28;20455;-66
2021/03/29 07:50:58;;;;;;;1.90;1.00;;;22.80;29.00;;;;;;5112598;28;20883;-65
2021/03/29 07:53:51;;;;;;;1.90;0.90;;;22.80;29.00;;;;;;5112370;28;20391;-66
2021/03/29 07:56:35;;;;;;;1.55;0.90;;;22.80;28.90;;;;;;5112039;28;20408;-65
2021/03/29 07:59:02;;;;;;;1.60;0.90;;;22.90;29.00;;;;;;5112229;28;20380;-66
2021/03/29 08:01:48;;;;;;;1.48;0.90;;;22.90;28.90;;;;;;5112280;28;20372;-64
2021/03/29 08:04:15;;;;;;;1.50;0.98;;;22.90;28.80;;;;;;5111079;28;20457;-63
2021/03/29 08:06:45;;;;;;;2.00;1.00;;;23.00;28.80;;;;;;5112152;28;20384;-65
2021/03/29 08:09:14;;;;;;;1.67;0.90;;;23.00;28.80;;;;;;5111386;28;20414;-66
2021/03/29 08:11:53;;;;;;;1.67;0.90;;;23.00;28.90;;;;;;5112130;28;20445;-65
2021/03/29 08:14:40;;;;;;;1.65;0.88;;;23.00;28.80;;;;;;5112041;28;20392;-65
2021/03/29 08:17:46;;;;;;;1.50;0.82;;;23.00;28.90;;;;;;5112037;28;20815;-65
2021/03/29 08:20:13;;;;;;;1.40;0.85;;;23.10;29.00;;;;;;5112064;28;20494;-66
2021/03/29 08:22:39;;;;;;;1.83;1.10;;;23.10;28.90;;;;;;5111963;28;20439;-63
2021/03/29 08:25:06;;;;;;;1.60;0.90;;;23.10;29.00;;;;;;5111924;28;20852;-65
2021/03/29 08:27:32;;;;;;;2.05;0.90;;;23.10;29.00;;;;;;5111800;28;20439;-64
2021/03/29 08:30:17;;;;;;;1.70;1.00;;;23.10;29.10;;;;;;5099862;28;20380;-58
2021/03/29 08:32:43;;;;;;;2.10;1.00;;;23.20;29.10;;;;;;5101491;28;20406;-61
2021/03/29 08:35:14;;;;;;;1.80;0.90;;;23.20;29.10;;;;;;5094321;28;20435;-59
2021/03/29 08:37:42;;;;;;;1.50;0.90;;;23.20;29.00;;;;;;5091352;28;20378;-65
2021/03/29 08:40:16;;;;;;;1.00;0.68;;;23.20;28.90;;;;;;5090557;28;20874;-66
2021/03/29 08:42:44;;;;;;;1.38;0.80;;;23.20;29.00;;;;;;5091254;28;20405;-65
2021/03/29 08:45:13;;;;;;;2.70;1.00;;;23.30;29.00;;;;;;5091224;28;20398;-65
2021/03/29 08:47:41;;;;;;;1.58;0.98;;;23.30;28.90;;;;;;5094691;28;20429;-65
2021/03/29 08:50:14;;;;;;;1.80;1.00;;;23.30;28.90;;;;;;5094809;28;20389;-65
2021/03/29 08:52:51;;;;;;;1.85;0.90;;;23.30;28.80;;;;;;5095509;28;20405;-66
2021/03/29 08:55:20;;;;;;;1.70;1.00;;;23.30;28.90;;;;;;5108555;28;20396;-65
2021/03/29 08:57:47;;;;;;;1.30;0.77;;;23.30;28.70;;;;;;5115094;28;20438;-64
2021/03/29 09:00:18;;;;;;;1.30;0.80;;;23.40;28.80;;;;;;5115276;28;20424;-63
2021/03/29 09:02:44;;;;;;;1.73;0.90;;;23.40;28.90;;;;;;5115554;28;20424;-65
2021/03/29 09:05:15;;;;;;;1.40;0.88;;;23.40;28.80;;;;;;5115400;28;20705;-63
2021/03/29 09:07:53;;;;;;;1.73;0.93;;;23.40;28.80;;;;;;5115898;28;20368;-64
2021/03/29 09:10:25;;;;;;;1.35;0.80;;;23.40;28.60;;;;;;5115302;28;20373;-64
2021/03/29 09:13:03;;;;;;;1.88;0.90;;;23.50;28.80;;;;;;5115635;28;20399;-65
2021/03/29 09:15:30;;;;;;;1.17;0.63;;;23.50;28.80;;;;;;5115623;28;20384;-64
2021/03/29 09:18:07;;;;;;;1.70;1.00;;;23.50;28.80;;;;;;5115176;28;20384;-66
2021/03/29 09:20:36;;;;;;;1.30;0.70;;;23.50;28.70;;;;;;5114141;28;20392;-65
2021/03/29 09:23:02;;;;;;;1.40;0.80;;;23.60;28.70;;;;;;5114822;28;20422;-65
2021/03/29 09:25:36;;;;;;;1.52;0.90;;;23.60;28.70;;;;;;5115062;28;20380;-64
2021/03/29 09:28:19;;;;;;;1.67;0.80;;;23.60;28.70;;;;;;5114695;28;20388;-61
2021/03/29 09:30:50;;;;;;;1.50;0.70;;;23.60;28.70;;;;;;5115262;28;20510;-65
2021/03/29 09:33:16;;;;;;;1.50;0.80;;;23.60;28.70;;;;;;5115053;28;20461;-63
2021/03/29 09:35:43;;;;;;;1.50;0.73;;;23.60;28.70;;;;;;5115153;28;20392;-65
2021/03/29 09:38:10;;;;;;;1.33;0.77;;;23.60;28.70;;;;;;5114540;28;20453;-63
2021/03/29 09:40:36;;;;;;;1.80;0.80;;;23.60;28.70;;;;;;5114993;28;20433;-65
2021/03/29 09:43:03;;;;;;;1.27;0.80;;;23.60;28.70;;;;;;5114698;28;20416;-64
2021/03/29 09:45:34;;;;;;;1.08;0.60;;;23.60;28.70;;;;;;5114965;28;20476;-64
2021/03/29 09:48:09;;;;;;;1.17;0.77;;;23.70;28.80;;;;;;5114416;28;20474;-65
2021/03/29 09:50:43;;;;;;;1.40;0.60;;;23.70;28.70;;;;;;5114827;28;20959;-65
2021/03/29 09:53:17;;;;;;;1.65;0.82;;;23.70;28.60;;;;;;5114664;28;20392;-65
2021/03/29 09:55:55;;;;;;;1.50;0.80;;;23.70;28.60;;;;;;5113364;28;20384;-65
2021/03/29 09:58:32;;;;;;;1.38;0.60;;;23.70;28.60;;;;;;5110843;28;20385;-64
2021/03/29 10:01:01;;;;;;;1.65;0.80;;;23.80;28.60;;;;;;5102274;28;20818;-62
2021/03/29 10:03:28;;;;;;;1.65;0.88;;;23.80;28.50;;;;;;5102092;28;20850;-62
2021/03/29 10:05:56;;;;;;;1.45;0.70;;;23.80;28.50;;;;;;5101511;28;20370;-65
2021/03/29 10:08:30;;;;;;;1.30;0.80;;;23.80;28.40;;;;;;5101382;28;20390;-64
2021/03/29 10:11:02;;;;;;;0.95;0.60;;;23.80;28.40;;;;;;5100428;28;20919;-66
2021/03/29 10:13:39;;;;;;;1.50;0.80;;;23.80;28.40;;;;;;5101783;28;20386;-63
2021/03/29 10:16:29;;;;;;;1.40;0.60;;;23.80;28.40;;;;;;5102785;28;20821;-65
2021/03/29 10:19:06;;;;;;;1.50;0.70;;;23.90;28.30;;;;;;5101892;28;20792;-65
2021/03/29 10:21:34;;;;;;;1.27;0.73;;;23.90;28.20;;;;;;5101559;28;20375;-65
2021/03/29 10:24:23;;;;;;;1.20;0.65;;;23.90;28.30;;;;;;5101489;28;20434;-65
2021/03/29 10:27:06;;;;;;;1.27;0.73;;;23.90;28.30;;;;;;5103761;28;20416;-60
2021/03/29 10:29:37;;;;;;;1.00;0.70;;;23.90;28.30;;;;;;5103572;28;20373;-64
2021/03/29 10:32:23;;;;;;;1.20;0.60;;;23.90;28.30;;;;;;5101554;28;20883;-62
2021/03/29 10:34:49;;;;;;;1.20;0.70;;;23.90;28.20;;;;;;5103013;28;20443;-63
2021/03/29 10:37:24;;;;;;;0.97;0.60;;;23.90;28.20;;;;;;5102623;28;20473;-60
2021/03/29 10:39:51;;;;;;;1.17;0.80;;;23.90;28.20;;;;;;5101306;28;20386;-63
2021/03/29 10:42:18;;;;;;;1.05;0.63;;;23.90;28.20;;;;;;5102573;28;20441;-64
2021/03/29 10:44:44;;;;;;;1.02;0.63;;;23.90;28.20;;;;;;5102590;28;20444;-65
2021/03/29 10:47:11;;;;;;;1.25;0.70;;;23.90;28.30;;;;;;5101147;28;20390;-66
2021/03/29 10:49:38;;;;;;;1.80;0.70;;;23.90;28.20;;;;;;5103355;28;20385;-65
2021/03/29 10:52:04;;;;;;;1.53;0.60;;;24.00;28.20;;;;;;5103822;28;20389;-65
2021/03/29 10:54:30;;;;;;;1.13;0.70;;;23.90;28.20;;;;;;5104705;28;20742;-66
2021/03/29 10:56:55;;;;;;;1.13;0.70;;;23.90;28.10;;;;;;5104523;28;20386;-65
2021/03/29 10:59:21;;;;;;;1.20;0.70;;;24.00;28.10;;;;;;5113264;28;20471;-66
2021/03/29 11:01:47;;;;;;;1.30;0.70;;;24.00;28.10;;;;;;5113554;28;20379;-66
2021/03/29 11:04:12;;;;;;;1.03;0.70;;;24.00;28.10;;;;;;5112882;28;20412;-65
2021/03/29 11:06:39;;;;;;;1.13;0.80;;;24.00;28.20;;;;;;5113284;28;20384;-65
2021/03/29 11:09:05;;;;;;;1.80;0.80;;;23.90;28.20;;;;;;5112808;27;20403;-64
2021/03/29 11:11:31;;;;;;;1.10;0.60;;;23.90;28.20;;;;;;5113388;28;20385;-65
2021/03/29 11:13:56;;;;;;;1.00;0.60;;;23.90;28.20;;;;;;5112921;28;20407;-64
2021/03/29 11:16:23;;;;;;;1.20;0.60;;;23.90;28.20;;;;;;5113054;28;20883;-64
2021/03/29 11:18:49;;;;;;;1.35;0.80;;;24.00;28.10;;;;;;5113248;28;20416;-65
2021/03/29 11:21:16;;;;;;;1.00;0.60;;;24.00;28.10;;;;;;5111725;28;20397;-64
2021/03/29 11:23:42;;;;;;;1.30;0.77;;;24.00;28.10;;;;;;5113010;28;20407;-65
2021/03/29 11:26:07;;;;;;;1.50;0.70;;;24.00;28.10;;;;;;5111852;28;20448;-64
2021/03/29 11:28:34;;;;;;;1.30;0.73;;;24.10;28.10;;;;;;5111843;28;20396;-62
2021/03/29 11:31:00;;;;;;;0.98;0.60;;;24.10;28.10;;;;;;5100415;28;20390;-65
2021/03/29 11:33:25;;;;;;;1.40;0.60;;;24.10;28.10;;;;;;5102018;28;20480;-63
2021/03/29 11:35:51;;;;;;;1.15;0.75;;;24.10;28.10;;;;;;5100323;28;20469;-65
2021/03/29 11:38:17;;;;;;;1.23;0.80;;;24.10;28.10;;;;;;5102499;28;20388;-65
2021/03/29 11:40:43;;;;;;;1.00;0.70;;;24.10;28.10;;;;;;5102213;28;20879;-63
2021/03/29 11:43:09;;;;;;;1.58;0.65;;;24.10;28.10;;;;;;5101173;28;20933;-63
2021/03/29 11:45:35;;;;;;;1.48;0.80;;;24.10;28.10;;;;;;5099963;28;20440;-65
2021/03/29 11:48:00;;;;;;;1.80;0.70;;;24.20;28.10;;;;;;5112242;28;20782;-65
2021/03/29 11:50:26;;;;;;;1.02;0.63;;;24.20;28.10;;;;;;5112193;28;20372;-66
2021/03/29 11:52:52;;;;;;;1.52;0.70;;;24.20;28.10;;;;;;5112583;28;20399;-64
2021/03/29 11:55:18;;;;;;;1.20;0.70;;;24.30;28.10;;;;;;5112423;28;20782;-64
2021/03/29 11:57:45;;;;;;;1.83;0.60;;;24.30;28.10;;;;;;5112486;28;20391;-64
2021/03/29 12:00:28;;;;;;;1.05;0.60;;;24.30;28.10;;;;;;5111996;28;20391;-65
2021/03/29 12:03:11;;;;;;;1.00;0.50;;;24.30;28.10;;;;;;5112190;28;20465;-64
2021/03/29 12:05:41;;;;;;;1.10;0.60;;;24.30;28.10;;;;;;5112374;28;20376;-66
2021/03/29 12:08:23;;;;;;;1.58;0.80;;;24.40;28.10;;;;;;5111622;28;20401;-58
2021/03/29 12:13:33;;;;;;;1.42;0.70;;;24.40;28.00;;;;;;5107195;28;20399;-59
2021/03/29 12:16:00;;;;;;;1.60;0.80;;;24.40;28.10;;;;;;5105096;28;20396;-59
2021/03/29 12:18:59;;;;;;;1.33;0.80;;;24.40;28.10;;;;;;5097607;28;20430;-58
2021/03/29 12:21:27;;;;;;;1.25;0.60;;;24.40;28.10;;;;;;5088812;28;20390;-58
2021/03/29 12:23:58;;;;;;;1.67;0.55;;;24.50;28.10;;;;;;5091751;28;20829;-59
2021/03/29 12:26:26;;;;;;;1.08;0.60;;;24.50;28.10;;;;;;5091487;28;20481;-59
2021/03/29 12:28:52;;;;;;;1.60;0.70;;;24.50;28.10;;;;;;5091623;28;20420;-58
2021/03/29 12:31:20;;;;;;;1.30;0.60;;;24.50;28.00;;;;;;5090285;28;20439;-58
2021/03/29 12:33:47;;;;;;;1.40;0.50;;;24.50;28.00;;;;;;5090313;28;20436;-58
2021/03/29 12:36:13;;;;;;;1.17;0.60;;;24.50;27.90;;;;;;5091005;28;20670;-58
2021/03/29 12:38:46;;;;;;;1.17;0.60;;;24.60;27.90;;;;;;5091380;28;20390;-59
2021/03/29 12:41:13;;;;;;;1.90;1.02;;;24.60;27.90;;;;;;5091307;28;20416;-59
2021/03/29 12:43:42;;;;;;;1.77;0.80;;;24.60;27.90;;;;;;5091145;28;20426;-59
2021/03/29 12:46:08;;;;;;;1.95;0.57;;;24.60;27.90;;;;;;5090965;28;20381;-59
2021/03/29 12:48:37;;;;;;;1.37;0.60;;;24.60;27.90;;;;;;5091661;28;20856;-63
2021/03/29 12:51:05;;;;;;;1.70;0.60;;;24.60;27.90;;;;;;5091314;28;20457;-59
2021/03/29 12:53:32;;;;;;;2.80;0.90;;;24.60;27.90;;;;;;5091227;28;20415;-59
2021/03/29 12:55:57;;;;;;;4.18;1.20;;;24.50;27.90;;;;;;5090607;28;20407;-65
2021/03/29 12:58:24;;;;;;;2.67;1.00;;;24.40;27.50;;;;;;5090474;28;20412;-64
2021/03/29 13:00:51;;;;;;;3.42;1.13;;;24.30;28.00;;;;;;5091194;28;20397;-63
2021/03/29 13:03:24;;;;;;;2.88;0.95;;;24.20;27.60;;;;;;5091121;28;20957;-63
2021/03/29 13:08:19;;;;;;;2.67;0.98;;;25.80;28.20;;;;;;5089708;28;20386;-65